Flight Track Log - Related Links

Times and Time Zones

All times are in EDT time to prevent confusion due to time zone crossing. See the GJS3649 flight status page for this flight to view local times or setup timezone preferences in your user account.

Time Position Orientation Groundspeed Altitude Reporting Facility
EDT Latitude Longitude Course Direction KTS MPH feet Rate Location/Type
Wed 03:37:35 PM 41.9292 -72.7081 338° Northwest 251 289 1,100  Level Boston Center
Wed 03:38:29 PM 41.9686 -72.7444 326° Northwest 266 306 3,200 2,737 Climbing Boston Center
Wed 03:39:29 PM 42.0269 -72.7811 335° Northwest 265 305 6,300 2,750 Climbing Boston Center
Wed 03:40:29 PM 42.0831 -72.8122 338° Northwest 243 280 8,700 2,150 Climbing Boston Center
Wed 03:41:00 PM 42.4818 -73.0491 340° North  Level FlightAware Approximate
Wed 03:41:29 PM 42.1642 -72.8125 360° North 251 289 10,600  Level Boston Center
Wed 03:42:00 PM 42.6255 -73.1281 334° Northwest  Level FlightAware Approximate
Wed 03:42:29 PM 42.2436 -72.8075 North 293 337 12,900  Level Boston Center
Wed 03:43:00 PM 42.7677 -73.2120 338° Northwest  Level FlightAware Approximate
Wed 03:43:29 PM 42.3267 -72.8472 341° North 303 349 15,100  Level Boston Center
Wed 03:44:29 PM 42.3994 -72.8956 334° Northwest 305 351 16,500 1,200 Climbing Boston Center
Wed 03:45:29 PM 42.4950 -72.9611 333° Northwest 334 384 17,500 1,100 Climbing Boston Center
Wed 03:46:29 PM 42.5886 -73.0350 330° Northwest 372 428 18,700 1,050 Climbing Boston Center
Wed 03:47:29 PM 42.6797 -73.1039 331° Northwest 399 459 19,600 650 Climbing Boston Center
Wed 03:48:29 PM 42.7794 -73.1783 331° Northwest 409 471 20,000 450 Climbing Boston Center
Wed 03:49:29 PM 42.8769 -73.2561 330° Northwest 409 471 20,500 750 Climbing Boston Center
Wed 03:50:29 PM 42.9722 -73.3339 329° Northwest 404 465 21,500 950 Climbing Boston Center
Wed 03:51:29 PM 43.0022 -73.4650 287° West 359 413 22,400 950 Climbing Boston Center
Wed 03:52:29 PM 43.0133 -73.6183 276° West 367 422 23,400 1,000 Climbing Boston Center
Wed 03:53:29 PM 43.0200 -73.7692 274° West 385 443 24,400 1,050 Climbing Boston Center
Wed 03:54:29 PM 43.0328 -73.9228 277° West 400 460 25,500 1,050 Climbing Boston Center
Wed 03:55:29 PM 43.0408 -74.0792 274° West 411 473 26,500 1,000 Climbing Boston Center
Wed 03:56:29 PM 43.0511 -74.2300 275° West 411 473 27,500 992 Climbing Boston Center
Wed 03:57:30 PM 43.0611 -74.3839 275° West 411 473 28,500 992 Climbing Boston Center
Wed 03:58:30 PM 43.0708 -74.5378 275° West 406 467 29,500 756 Climbing Boston Center
Wed 03:59:29 PM 43.0806 -74.6914 275° West 406 467 30,000 252 Climbing Boston Center
Wed 04:00:29 PM 43.0897 -74.8539 274° West 411 473 30,000  Level Boston Center
Wed 04:01:30 PM 43.0572 -75.0089 254° West 418 481 30,000  Level Boston Center
Wed 04:02:30 PM 42.9669 -75.1217 222° Southwest 405 466 30,000  Level Boston Center
Wed 04:03:29 PM 42.8767 -75.2367 223° Southwest 428 493 30,000  Level Boston Center
Wed 04:04:30 PM 42.7883 -75.3486 223° Southwest 442 509 30,000  Level Boston Center
Wed 04:05:29 PM 42.7000 -75.4633 224° Southwest 442 509 30,000  Level Boston Center
Wed 04:06:29 PM 42.6114 -75.5772 223° Southwest 442 509 30,000  Level Boston Center
Wed 04:08:28 PM 42.4267 -75.8017 222° Southwest 436 502 30,000  Level New York Center
Wed 04:09:29 PM 42.3386 -75.9128 223° Southwest 436 502 30,000  Level New York Center
Wed 04:10:27 PM 42.2464 -76.0231 222° Southwest 436 502 30,000  Level New York Center
Wed 04:11:29 PM 42.1581 -76.1364 224° Southwest 436 502 30,000  Level New York Center
Wed 04:12:27 PM 42.0775 -76.2611 229° Southwest 441 507 30,000 -454 Level New York Center
Wed 04:13:28 PM 41.9969 -76.3828 228° Southwest 446 513 29,100 -1,000 Descending New York Center
Wed 04:14:27 PM 41.9161 -76.5069 229° Southwest 446 513 28,000 -555 Descending New York Center
Wed 04:15:27 PM 41.8461 -76.6150 229° Southwest 446 513 28,000  Level New York Center
Wed 04:16:28 PM 41.7675 -76.7333 228° Southwest 441 507 28,000  Level New York Center
Wed 04:17:29 PM 41.6883 -76.8542 229° Southwest 441 507 28,000  Level New York Center
Wed 04:18:29 PM 41.6097 -76.9689 228° Southwest 441 507 28,000  Level New York Center
Wed 04:19:29 PM 41.5303 -77.0892 229° Southwest 441 507 28,000  Level New York Center
Wed 04:20:27 PM 41.4489 -77.2117 228° Southwest 441 507 28,000 -504 Level New York Center
Wed 04:21:28 PM 41.3692 -77.3311 228° Southwest 446 513 27,000 -1,041 Descending New York Center
Wed 04:22:28 PM 41.2831 -77.4583 228° Southwest 441 507 25,900 -1,041 Descending New York Center
Wed 04:23:29 PM 41.1992 -77.5767 227° Southwest 441 507 24,900 -1,017 Descending New York Center
Wed 04:24:26 PM 41.0772 -77.5975 187° South 424 488 23,900 -966 Descending New York Center
Wed 04:25:27 PM 40.9500 -77.5600 167° South 429 494 23,000 -984 Descending New York Center
Wed 04:26:28 PM 40.8250 -77.5258 168° South 443 510 21,900 -1,190 Descending New York Center
Wed 04:27:28 PM 40.7078 -77.4950 169° South 443 510 20,600 -1,311 Descending New York Center
Wed 04:28:27 PM 40.5867 -77.4614 168° South 443 510 19,300 -807 Descending New York Center
Wed 04:29:27 PM 40.4758 -77.4342 169° South 449 517 19,000 -645 Descending New York Center
Wed 04:30:28 PM 40.3442 -77.3997 169° South 449 517 18,000 -1,111 Descending New York Center
Wed 04:32:36 PM 40.1167 -77.3333 167° South 437 503 15,500 -1,213 Descending Potomac TRACON
Wed 04:33:36 PM 40.0000 -77.3000 168° South 429 494 14,200 -1,250 Descending Potomac TRACON
Wed 04:34:36 PM 39.8667 -77.2667 169° South 396 456 13,000 -1,250 Descending Potomac TRACON
Wed 04:35:36 PM 39.7833 -77.2500 171° South 345 397 11,700 -950 Descending Potomac TRACON
Wed 04:36:36 PM 39.7000 -77.2333 171° South 314 361 11,100 -300 Descending Potomac TRACON
Wed 04:37:36 PM 39.6500 -77.2833 218° Southwest 317 365 11,100 -730 Level Potomac TRACON
Wed 04:38:31 PM 39.5833 -77.3500 218° Southwest 289 333 9,700 -1,513 Descending Potomac TRACON
Wed 04:39:31 PM 39.5167 -77.4167 218° Southwest 276 318 8,200 -800 Descending Potomac TRACON
Wed 04:40:31 PM 39.4667 -77.4500 207° Southwest 250 288 8,100 -400 Descending Potomac TRACON
Wed 04:41:31 PM 39.4000 -77.4500 180° South 252 290 7,400 -950 Descending Potomac TRACON
Wed 04:42:31 PM 39.3167 -77.4500 180° South 262 302 6,200 -1,095 Descending Potomac TRACON
Wed 04:43:37 PM 39.2500 -77.4500 180° South 247 284 5,100 -905 Descending Potomac TRACON
Wed 04:44:37 PM 39.1833 -77.4500 180° South 199 229 4,300 -789 Descending Potomac TRACON
Wed 04:45:31 PM 39.1333 -77.4500 180° South 180 207 3,600 -778 Descending Potomac TRACON

Login

Don't have an account? Register now (free) for customized features, flight alerts, and more!